Lancaster, New York
Current Conditions -  °F | °C
As of 11:54 PM on Sunday 19 Oct 2014 (Local Time) from KBUF Reporting Station
Broken Clouds Broken Clouds  
Wind Chill: 36°   Ceiling: 23000
Heat Index: 41°   Visibility: 10mi
Dew Point: 35°   Wind: 7mph
Humidity: 79%   Direction: 160°SSE
Pressure: 30"   Gusts: NA
Location:  42.9°N, 78.67°W
Report Text: KBUF 200354Z 16006KT 10SM FEW033 SCT150 BKN230 05/02 A3000 RMK AO2 SLP165 T00500017
Loading
Personal Weather Stations






























Interactive Weather Map
Tropical Storm Tracking
New forecast layout! Learn more

10-Day Weather Forecast

Advertisements
Track Severe Weather on mobile